Time;durP1;ratioP1;P1;durP2;ratioP2;P2;SDS_P1;SDS_P2;PMS_P1;PMS_P2;Temp;Humidity;BMP_temperature;BMP_pressure;BME280_temperature;BME280_humidity;BME280_pressure;Samples;Min_cycle;Max_cycle;Signal;HPM_P1;HPM_P2
2021/09/13 00:02:22;;;;;;;5.30;4.80;;;23.10;37.40;;;;;;4934588;29;20207;-52
2021/09/13 00:04:47;;;;;;;4.70;4.40;;;23.10;37.40;;;;;;4934498;28;20200;-53
2021/09/13 00:07:13;;;;;;;5.67;5.27;;;23.10;37.40;;;;;;4937043;29;20545;-52
2021/09/13 00:09:38;;;;;;;5.20;4.70;;;23.10;37.40;;;;;;4938116;29;20191;-53
2021/09/13 00:12:04;;;;;;;4.93;4.53;;;23.10;37.40;;;;;;4938286;29;20203;-54
2021/09/13 00:14:30;;;;;;;5.27;4.80;;;23.10;37.40;;;;;;4938203;29;20188;-53
2021/09/13 00:16:55;;;;;;;5.10;4.53;;;23.10;37.40;;;;;;4938245;29;20430;-53
2021/09/13 00:19:22;;;;;;;5.00;4.57;;;23.10;37.50;;;;;;4938047;28;20239;-54
2021/09/13 00:21:48;;;;;;;4.60;4.20;;;23.10;37.40;;;;;;4937972;29;20664;-53
2021/09/13 00:24:14;;;;;;;5.30;4.90;;;23.10;37.50;;;;;;4938102;29;20449;-53
2021/09/13 00:26:39;;;;;;;4.93;4.53;;;23.10;37.40;;;;;;4938216;29;20183;-54
2021/09/13 00:29:05;;;;;;;7.50;4.20;;;23.10;37.40;;;;;;4937905;29;20172;-55
2021/09/13 00:31:30;;;;;;;4.80;4.50;;;23.10;37.40;;;;;;4937925;29;20200;-53
2021/09/13 00:33:56;;;;;;;5.10;4.60;;;23.10;37.50;;;;;;4937982;29;20610;-55
2021/09/13 00:36:21;;;;;;;5.40;4.90;;;23.10;37.40;;;;;;4937770;29;20647;-52
2021/09/13 00:38:47;;;;;;;4.50;4.20;;;23.10;37.40;;;;;;4937567;29;20697;-55
2021/09/13 00:41:12;;;;;;;4.80;4.40;;;23.10;37.40;;;;;;4937632;29;20200;-51
2021/09/13 00:43:38;;;;;;;3.80;3.47;;;23.10;37.40;;;;;;4937735;29;20207;-54
2021/09/13 00:46:04;;;;;;;4.70;4.40;;;23.10;37.30;;;;;;4937606;29;20178;-54
2021/09/13 00:48:30;;;;;;;4.77;4.37;;;23.10;37.30;;;;;;4937568;29;20275;-55
2021/09/13 00:50:55;;;;;;;3.77;3.47;;;23.00;37.20;;;;;;4937453;29;20519;-54
2021/09/13 00:53:21;;;;;;;4.60;4.20;;;23.10;37.30;;;;;;4937587;29;20677;-52
2021/09/13 00:55:46;;;;;;;4.20;3.80;;;23.10;37.30;;;;;;4937513;29;20180;-56
2021/09/13 00:58:12;;;;;;;4.70;4.30;;;23.00;37.20;;;;;;4937552;29;20180;-55
2021/09/13 01:00:37;;;;;;;4.30;4.00;;;23.00;37.90;;;;;;4937014;29;20223;-50
2021/09/13 01:03:03;;;;;;;4.60;4.20;;;23.00;37.20;;;;;;4937386;29;20218;-54
2021/09/13 01:05:29;;;;;;;4.57;4.17;;;23.00;37.10;;;;;;4937396;29;20651;-50
2021/09/13 01:07:55;;;;;;;4.53;4.13;;;23.00;37.10;;;;;;4937323;29;20210;-55
2021/09/13 01:10:21;;;;;;;4.53;4.20;;;23.00;37.80;;;;;;4936981;28;20541;-54
2021/09/13 01:12:47;;;;;;;3.63;3.43;;;23.00;37.10;;;;;;4937137;29;20423;-52
2021/09/13 01:15:13;;;;;;;4.30;4.00;;;23.00;37.10;;;;;;4937079;29;20416;-53
2021/09/13 01:17:38;;;;;;;3.67;3.47;;;23.00;37.10;;;;;;4936808;29;20180;-54
2021/09/13 01:20:05;;;;;;;4.00;3.73;;;23.00;37.10;;;;;;4936941;29;20438;-50
2021/09/13 01:23:14;;;;;;;4.00;3.80;;;23.00;37.10;;;;;;4936746;29;20752;-52
2021/09/13 01:25:39;;;;;;;4.10;3.70;;;23.00;37.10;;;;;;4937048;29;20438;-52
2021/09/13 01:28:05;;;;;;;3.70;3.40;;;23.00;37.10;;;;;;4936964;29;20404;-54
2021/09/13 01:30:32;;;;;;;3.33;3.10;;;23.00;37.10;;;;;;4936607;29;20259;-54
2021/09/13 01:32:57;;;;;;;3.60;3.40;;;23.00;37.10;;;;;;4936788;29;20187;-53
2021/09/13 01:35:23;;;;;;;3.60;3.40;;;23.00;37.10;;;;;;4936813;29;20416;-55
2021/09/13 01:37:48;;;;;;;4.20;3.90;;;23.00;37.10;;;;;;4936688;29;20191;-53
2021/09/13 01:40:14;;;;;;;4.37;4.07;;;23.00;37.10;;;;;;4936569;29;20184;-51
2021/09/13 01:42:39;;;;;;;4.00;3.70;;;23.00;37.10;;;;;;4936482;29;20211;-55
2021/09/13 01:45:05;;;;;;;4.70;4.30;;;23.00;37.10;;;;;;4936623;29;20168;-51
2021/09/13 01:47:32;;;;;;;3.70;3.43;;;23.00;37.10;;;;;;4936507;29;20555;-56
2021/09/13 01:49:57;;;;;;;4.40;4.10;;;23.00;37.20;;;;;;4936326;29;20423;-56
2021/09/13 01:52:23;;;;;;;3.53;3.33;;;22.90;37.10;;;;;;4936416;29;20444;-54
2021/09/13 01:54:48;;;;;;;4.30;4.00;;;23.00;37.20;;;;;;4936627;29;20180;-50
2021/09/13 01:57:14;;;;;;;4.20;3.90;;;23.00;37.20;;;;;;4936385;29;20208;-50
2021/09/13 01:59:39;;;;;;;4.20;3.90;;;22.90;37.10;;;;;;4936244;29;20184;-55
2021/09/13 02:02:05;;;;;;;3.77;3.47;;;22.90;37.10;;;;;;4936159;29;20218;-51
2021/09/13 02:04:30;;;;;;;4.10;3.80;;;22.90;37.10;;;;;;4936359;28;20676;-52
2021/09/13 02:06:56;;;;;;;4.17;3.87;;;22.90;37.20;;;;;;4936243;29;20664;-53
2021/09/13 02:09:22;;;;;;;3.50;3.30;;;22.90;37.20;;;;;;4936046;29;20164;-54
2021/09/13 02:11:47;;;;;;;4.20;3.90;;;22.90;37.30;;;;;;4936048;29;20203;-50
2021/09/13 02:14:13;;;;;;;3.93;3.73;;;22.90;37.30;;;;;;4936084;29;20191;-51
2021/09/13 02:16:38;;;;;;;4.30;3.90;;;22.90;37.20;;;;;;4936002;29;20186;-54
2021/09/13 02:19:04;;;;;;;3.73;3.53;;;22.90;37.20;;;;;;4935856;29;20207;-53
2021/09/13 02:21:29;;;;;;;4.40;3.73;;;22.90;37.20;;;;;;4935840;29;20200;-52
2021/09/13 02:23:55;;;;;;;4.30;3.90;;;22.90;37.20;;;;;;4935964;29;20176;-51
2021/09/13 02:26:20;;;;;;;4.77;4.37;;;22.90;37.20;;;;;;4936002;29;20180;-52
2021/09/13 02:28:46;;;;;;;4.20;3.90;;;22.90;37.30;;;;;;4934939;29;20203;-54
2021/09/13 02:31:12;;;;;;;3.53;3.30;;;22.90;37.20;;;;;;4935756;29;20188;-52
2021/09/13 02:33:37;;;;;;;3.93;3.70;;;22.90;37.30;;;;;;4935658;29;20180;-53
2021/09/13 02:36:03;;;;;;;4.20;3.90;;;22.90;37.30;;;;;;4935940;28;20184;-53
2021/09/13 02:38:29;;;;;;;4.27;3.97;;;22.90;37.30;;;;;;4935387;29;20175;-56
2021/09/13 02:40:54;;;;;;;3.80;3.60;;;22.90;37.30;;;;;;4935689;29;20203;-51
2021/09/13 02:43:20;;;;;;;3.93;3.73;;;22.90;37.30;;;;;;4935451;29;20255;-52
2021/09/13 02:45:45;;;;;;;4.20;3.90;;;22.90;37.40;;;;;;4935617;29;20247;-51
2021/09/13 02:48:11;;;;;;;4.23;3.77;;;22.90;37.30;;;;;;4935341;29;20215;-55
2021/09/13 02:50:36;;;;;;;4.40;4.10;;;22.90;37.30;;;;;;4935462;29;20552;-52
2021/09/13 02:53:02;;;;;;;4.63;4.10;;;22.90;37.30;;;;;;4935417;29;20245;-53
2021/09/13 02:55:28;;;;;;;4.00;3.80;;;22.90;37.30;;;;;;4935434;29;20207;-53
2021/09/13 02:57:53;;;;;;;4.07;3.80;;;22.90;37.30;;;;;;4935314;29;20766;-54
2021/09/13 03:00:20;;;;;;;3.73;3.53;;;22.90;37.30;;;;;;4934925;29;20200;-51
2021/09/13 03:02:45;;;;;;;3.97;3.67;;;22.90;37.30;;;;;;4935131;29;20295;-54
2021/09/13 03:05:11;;;;;;;4.40;4.10;;;22.90;37.30;;;;;;4935262;29;20860;-52
2021/09/13 03:07:37;;;;;;;4.20;3.90;;;22.90;37.30;;;;;;4935181;29;20175;-51
2021/09/13 03:10:04;;;;;;;3.90;3.70;;;22.90;37.30;;;;;;4934897;29;20180;-55
2021/09/13 03:12:33;;;;;;;4.03;3.80;;;22.80;37.20;;;;;;4934925;29;20208;-54
2021/09/13 03:15:03;;;;;;;4.37;4.00;;;22.80;37.30;;;;;;4935110;29;20420;-55
2021/09/13 03:17:28;;;;;;;4.47;4.17;;;22.80;38.00;;;;;;4934968;29;20408;-52
2021/09/13 03:19:54;;;;;;;4.40;4.00;;;22.80;37.40;;;;;;4934860;29;20821;-55
2021/09/13 03:22:19;;;;;;;3.63;3.43;;;22.80;37.40;;;;;;4934799;29;20211;-52
2021/09/13 03:24:45;;;;;;;5.20;3.83;;;22.80;37.40;;;;;;4935090;29;20835;-56
2021/09/13 03:27:10;;;;;;;4.80;4.50;;;22.80;37.40;;;;;;4934957;29;20172;-55
2021/09/13 03:29:36;;;;;;;4.60;3.87;;;22.80;37.40;;;;;;4934709;29;20184;-54
2021/09/13 03:32:02;;;;;;;4.80;4.43;;;22.80;37.40;;;;;;4934694;29;20283;-50
2021/09/13 03:34:27;;;;;;;4.47;4.17;;;22.80;37.40;;;;;;4935065;29;20651;-53
2021/09/13 03:36:54;;;;;;;4.40;4.10;;;22.80;37.40;;;;;;4934866;29;20259;-53
2021/09/13 03:39:20;;;;;;;4.33;4.03;;;22.80;37.40;;;;;;4934608;29;20194;-53
2021/09/13 03:41:45;;;;;;;5.00;4.60;;;22.80;37.40;;;;;;4934638;29;20986;-51
2021/09/13 03:44:11;;;;;;;4.33;3.93;;;22.80;37.40;;;;;;4934665;29;20559;-53
2021/09/13 03:46:36;;;;;;;4.23;3.87;;;22.80;37.40;;;;;;4934752;29;20628;-55
2021/09/13 03:49:02;;;;;;;4.07;3.77;;;22.90;37.40;;;;;;4934449;29;20580;-54
2021/09/13 03:51:27;;;;;;;4.03;3.80;;;22.80;37.30;;;;;;4934647;29;20195;-51
2021/09/13 03:53:53;;;;;;;3.80;3.50;;;22.80;38.00;;;;;;4934611;29;20169;-52
2021/09/13 03:56:18;;;;;;;4.10;3.90;;;22.80;37.30;;;;;;4934737;29;20176;-55
2021/09/13 03:58:44;;;;;;;4.43;4.13;;;22.80;37.30;;;;;;4934311;29;20644;-52
2021/09/13 04:01:10;;;;;;;4.27;3.97;;;22.80;37.30;;;;;;4934377;28;20212;-53
2021/09/13 04:03:59;;;;;;;3.77;3.47;;;22.80;37.40;;;;;;4934455;29;20204;-54
2021/09/13 04:06:26;;;;;;;4.43;4.13;;;22.80;37.40;;;;;;4934319;29;20284;-55
2021/09/13 04:09:37;;;;;;;4.20;3.90;;;22.80;37.50;;;;;;4933913;29;20416;-53
2021/09/13 04:11:54;;;;;;;4.90;4.40;;;22.80;37.60;;;;;;4933638;29;20450;-53
2021/09/13 04:14:21;;;;;;;4.67;4.37;;;22.80;37.60;;;;;;4934467;29;20435;-53
2021/09/13 04:16:46;;;;;;;4.30;4.00;;;22.80;37.50;;;;;;4934470;29;20418;-57
2021/09/13 04:19:12;;;;;;;4.30;4.10;;;22.70;37.50;;;;;;4934160;29;20895;-55
2021/09/13 04:21:38;;;;;;;4.40;4.10;;;22.80;37.50;;;;;;4934187;29;20683;-52
2021/09/13 04:24:04;;;;;;;4.33;4.07;;;22.80;37.50;;;;;;4934360;29;20176;-53
2021/09/13 04:26:30;;;;;;;4.80;4.40;;;22.80;37.50;;;;;;4934236;29;20475;-54
2021/09/13 04:28:55;;;;;;;4.00;3.70;;;22.80;37.50;;;;;;4934008;29;20259;-52
2021/09/13 04:31:21;;;;;;;4.30;4.00;;;22.80;37.50;;;;;;4933560;29;20228;-64
2021/09/13 04:33:46;;;;;;;4.43;4.03;;;22.80;37.60;;;;;;4928537;29;20211;-55
2021/09/13 04:36:12;;;;;;;5.60;3.80;;;22.80;37.60;;;;;;4934191;29;20195;-57
2021/09/13 04:38:37;;;;;;;3.93;3.73;;;22.80;37.60;;;;;;4933946;29;20263;-58
2021/09/13 04:41:03;;;;;;;4.73;4.23;;;22.80;37.60;;;;;;4933662;29;20249;-56
2021/09/13 04:43:28;;;;;;;5.23;3.80;;;22.80;37.60;;;;;;4934094;29;20292;-57
2021/09/13 04:45:54;;;;;;;4.63;4.20;;;22.80;37.60;;;;;;4933974;29;20180;-54
2021/09/13 04:48:19;;;;;;;3.70;3.40;;;22.80;37.70;;;;;;4933648;29;20561;-58
2021/09/13 04:50:45;;;;;;;3.97;3.60;;;22.80;37.60;;;;;;4933497;29;20192;-58
2021/09/13 04:53:10;;;;;;;4.50;4.20;;;22.80;37.70;;;;;;4936006;29;20183;-54
2021/09/13 04:55:36;;;;;;;4.10;3.70;;;22.80;37.60;;;;;;4937270;29;20184;-57
2021/09/13 04:58:02;;;;;;;4.83;4.20;;;22.80;38.30;;;;;;4937563;29;20332;-56
2021/09/13 05:00:28;;;;;;;4.73;4.20;;;22.80;37.70;;;;;;4936973;29;20200;-59
2021/09/13 05:02:53;;;;;;;4.07;3.67;;;22.80;37.60;;;;;;4936905;29;20459;-55
2021/09/13 05:05:19;;;;;;;4.90;3.90;;;22.80;37.60;;;;;;4937316;29;20176;-56
2021/09/13 05:07:44;;;;;;;5.07;4.00;;;22.80;37.60;;;;;;4937116;29;20180;-55
2021/09/13 05:10:10;;;;;;;4.40;4.10;;;22.80;37.70;;;;;;4936623;29;20176;-57
2021/09/13 05:12:36;;;;;;;3.93;3.63;;;22.80;37.70;;;;;;4937207;29;20208;-55
2021/09/13 05:15:02;;;;;;;5.03;3.73;;;22.80;37.70;;;;;;4937095;29;20494;-57
2021/09/13 05:17:27;;;;;;;4.80;4.40;;;22.80;37.70;;;;;;4936802;29;20220;-58
2021/09/13 05:19:53;;;;;;;5.00;4.60;;;22.80;37.70;;;;;;4936821;29;20267;-56
2021/09/13 05:22:18;;;;;;;4.03;3.73;;;22.80;37.70;;;;;;4936640;29;20244;-56
2021/09/13 05:24:44;;;;;;;4.90;4.50;;;22.80;37.60;;;;;;4936641;29;20251;-55
2021/09/13 05:27:09;;;;;;;4.00;3.80;;;22.80;37.60;;;;;;4936784;29;20232;-56
2021/09/13 05:29:36;;;;;;;4.70;4.40;;;22.80;37.60;;;;;;4936503;29;20191;-57
2021/09/13 05:32:03;;;;;;;4.40;4.10;;;22.80;37.60;;;;;;4936518;29;20567;-59
2021/09/13 05:34:28;;;;;;;4.40;4.10;;;22.80;37.60;;;;;;4936459;29;20813;-58
2021/09/13 05:36:54;;;;;;;5.20;4.10;;;22.80;37.60;;;;;;4936630;29;20431;-59
2021/09/13 05:39:20;;;;;;;3.90;3.50;;;22.80;37.60;;;;;;4929281;29;20176;-57
2021/09/13 05:41:45;;;;;;;4.60;4.20;;;22.80;37.60;;;;;;4922592;28;20231;-56
2021/09/13 05:44:11;;;;;;;4.17;3.87;;;22.80;37.60;;;;;;4922438;28;20443;-57
2021/09/13 05:46:36;;;;;;;4.60;4.30;;;22.80;37.60;;;;;;4922468;28;20291;-60
2021/09/13 05:49:04;;;;;;;4.90;4.13;;;22.80;37.60;;;;;;4922795;28;20294;-58
2021/09/13 05:51:30;;;;;;;4.23;3.90;;;22.80;37.60;;;;;;4922501;28;20737;-58
2021/09/13 05:53:55;;;;;;;4.63;4.20;;;22.80;37.60;;;;;;4922141;28;20479;-58
2021/09/13 05:56:21;;;;;;;4.37;4.07;;;22.80;37.60;;;;;;4922482;28;20228;-59
2021/09/13 05:58:46;;;;;;;8.00;5.10;;;22.70;37.60;;;;;;4922010;28;20234;-61
2021/09/13 06:01:12;;;;;;;5.33;4.80;;;22.80;37.70;;;;;;4919652;28;20242;-62
2021/09/13 06:03:37;;;;;;;4.93;4.40;;;22.70;37.60;;;;;;4919011;28;20236;-61
2021/09/13 06:06:03;;;;;;;5.00;4.60;;;22.80;37.60;;;;;;4918819;28;20228;-62
2021/09/13 06:08:28;;;;;;;4.67;4.27;;;22.80;37.70;;;;;;4919428;28;20635;-59
2021/09/13 06:10:54;;;;;;;5.77;4.40;;;22.70;37.70;;;;;;4918970;28;20232;-53
2021/09/13 06:13:19;;;;;;;4.83;4.30;;;22.70;37.70;;;;;;4920018;28;20275;-51
2021/09/13 06:15:45;;;;;;;4.33;3.93;;;22.70;37.50;;;;;;4918981;28;20227;-51
2021/09/13 06:18:11;;;;;;;5.40;4.90;;;22.70;37.40;;;;;;4920843;28;20223;-54
2021/09/13 06:20:37;;;;;;;4.63;4.33;;;22.70;37.50;;;;;;4919989;28;20269;-50
2021/09/13 06:23:03;;;;;;;5.20;4.77;;;22.70;37.50;;;;;;4918389;28;20488;-54
2021/09/13 06:25:28;;;;;;;4.03;3.73;;;22.70;37.60;;;;;;4920067;28;20262;-52
2021/09/13 06:27:54;;;;;;;4.73;4.40;;;22.70;37.70;;;;;;4918339;28;21413;-50
2021/09/13 06:30:19;;;;;;;4.73;4.27;;;22.70;37.70;;;;;;4919674;28;20243;-56
2021/09/13 06:32:45;;;;;;;4.50;4.07;;;22.70;37.60;;;;;;4918501;28;20228;-55
2021/09/13 06:35:11;;;;;;;4.97;4.47;;;22.60;37.60;;;;;;4919887;28;21259;-56
2021/09/13 06:37:36;;;;;;;4.57;4.27;;;22.60;37.50;;;;;;4917847;28;20238;-63
2021/09/13 06:40:02;;;;;;;5.30;4.80;;;22.60;37.50;;;;;;4917438;28;20831;-59
2021/09/13 06:42:30;;;;;;;4.87;4.37;;;22.60;37.60;;;;;;4918957;28;20374;-51
2021/09/13 06:44:56;;;;;;;6.07;4.30;;;22.60;37.40;;;;;;4920139;28;20227;-60
2021/09/13 06:47:44;;;;;;;5.50;4.47;;;22.60;37.40;;;;;;4920532;28;20464;-61
2021/09/13 06:50:09;;;;;;;6.20;4.80;;;22.60;37.50;;;;;;4937703;28;20517;-57
2021/09/13 06:52:35;;;;;;;4.93;4.53;;;22.60;37.20;;;;;;4939924;28;21170;-59
2021/09/13 06:55:00;;;;;;;6.03;5.53;;;22.60;37.20;;;;;;4940173;28;20461;-58
2021/09/13 06:57:26;;;;;;;6.20;4.40;;;22.60;37.10;;;;;;4939507;28;20698;-60
2021/09/13 06:59:52;;;;;;;5.10;4.40;;;22.60;37.10;;;;;;4937615;28;20289;-60
2021/09/13 07:02:17;;;;;;;5.73;5.23;;;22.60;37.30;;;;;;4937735;28;20235;-59
2021/09/13 07:04:43;;;;;;;5.93;5.40;;;22.60;37.30;;;;;;4939996;28;20600;-60
2021/09/13 07:07:09;;;;;;;9.13;6.60;;;22.60;37.40;;;;;;4939437;28;20295;-64
2021/09/13 07:09:36;;;;;;;7.13;6.53;;;22.60;37.30;;;;;;4939444;28;20954;-57
2021/09/13 07:12:01;;;;;;;5.53;5.00;;;22.60;37.30;;;;;;4939841;28;20289;-60
2021/09/13 07:14:27;;;;;;;7.80;5.57;;;22.60;37.30;;;;;;4938383;28;20845;-63
2021/09/13 07:16:52;;;;;;;7.00;6.00;;;22.70;38.10;;;;;;4937596;28;20254;-61
2021/09/13 07:19:18;;;;;;;6.13;5.63;;;22.70;37.30;;;;;;4939110;28;20223;-64
2021/09/13 07:21:43;;;;;;;7.20;5.33;;;22.70;37.30;;;;;;4938907;28;20253;-55
2021/09/13 07:24:09;;;;;;;6.07;5.17;;;22.70;37.30;;;;;;4939363;28;20278;-54
2021/09/13 07:26:34;;;;;;;6.10;5.50;;;22.70;37.30;;;;;;4939145;28;20226;-53
2021/09/13 07:29:00;;;;;;;7.67;5.50;;;22.70;37.30;;;;;;4938349;28;20227;-60
2021/09/13 07:31:25;;;;;;;4.90;4.50;;;22.70;37.30;;;;;;4937500;28;21144;-60
2021/09/13 07:33:51;;;;;;;6.67;6.03;;;22.70;37.30;;;;;;4939418;28;20649;-58
2021/09/13 07:36:16;;;;;;;5.50;4.97;;;22.60;37.10;;;;;;4938884;28;20636;-57
2021/09/13 07:38:42;;;;;;;6.13;5.00;;;22.60;37.10;;;;;;4938447;28;20219;-56
2021/09/13 07:41:07;;;;;;;6.73;5.70;;;22.60;37.20;;;;;;4937202;28;20265;-57
2021/09/13 07:43:33;;;;;;;8.53;4.73;;;22.60;37.20;;;;;;4939582;28;20237;-58
2021/09/13 07:45:59;;;;;;;5.43;5.03;;;22.60;37.10;;;;;;4938018;28;20882;-56
2021/09/13 07:48:25;;;;;;;7.43;4.50;;;22.60;37.10;;;;;;4937465;28;20234;-61
2021/09/13 07:50:50;;;;;;;4.47;4.03;;;22.70;37.20;;;;;;4938831;28;20509;-55
2021/09/13 07:53:16;;;;;;;5.20;4.77;;;22.60;37.10;;;;;;4938536;28;20233;-56
2021/09/13 07:55:41;;;;;;;5.00;4.60;;;22.60;37.10;;;;;;4939482;28;20223;-63
2021/09/13 07:58:07;;;;;;;6.03;4.97;;;22.60;37.10;;;;;;4939717;28;20250;-59
2021/09/13 08:00:32;;;;;;;4.87;4.47;;;22.60;37.20;;;;;;4938357;28;20227;-61
2021/09/13 08:02:58;;;;;;;5.53;5.03;;;22.60;37.20;;;;;;4937984;28;20292;-61
2021/09/13 08:05:24;;;;;;;6.50;4.50;;;22.60;37.10;;;;;;4937979;28;20272;-52
2021/09/13 08:07:49;;;;;;;4.87;4.47;;;22.60;37.20;;;;;;4938861;28;20250;-53
2021/09/13 08:10:15;;;;;;;4.37;3.97;;;22.60;37.10;;;;;;4938216;28;20282;-57
2021/09/13 08:12:40;;;;;;;5.43;4.97;;;22.60;37.20;;;;;;4939426;28;20821;-50
2021/09/13 08:15:06;;;;;;;4.90;4.57;;;22.70;37.30;;;;;;4939211;28;20222;-55
2021/09/13 08:17:32;;;;;;;4.90;3.93;;;22.70;37.30;;;;;;4939596;28;20280;-54
2021/09/13 08:19:57;;;;;;;5.13;4.63;;;22.70;37.40;;;;;;4938116;28;20541;-55
2021/09/13 08:22:23;;;;;;;4.97;4.57;;;22.70;37.40;;;;;;4937221;28;20378;-49
2021/09/13 08:24:50;;;;;;;4.43;3.90;;;22.70;37.40;;;;;;4939054;28;20234;-56
2021/09/13 08:27:16;;;;;;;5.00;4.50;;;22.60;37.40;;;;;;4939902;28;20277;-56
2021/09/13 08:29:42;;;;;;;8.83;4.60;;;22.60;37.50;;;;;;4941816;28;21499;-54
2021/09/13 08:32:08;;;;;;;4.40;4.10;;;22.60;37.40;;;;;;4942942;28;20450;-52
2021/09/13 08:34:33;;;;;;;5.17;4.77;;;22.60;37.40;;;;;;4940218;28;20257;-52
2021/09/13 08:36:59;;;;;;;5.17;4.77;;;22.70;37.50;;;;;;4948286;28;20237;-54
2021/09/13 08:39:24;;;;;;;5.03;4.47;;;22.70;37.50;;;;;;4942296;28;20326;-52
2021/09/13 08:41:50;;;;;;;5.07;4.60;;;22.70;37.50;;;;;;4941168;28;20234;-56
2021/09/13 08:44:16;;;;;;;5.47;4.73;;;22.70;37.50;;;;;;4941845;28;20219;-54
2021/09/13 08:46:47;;;;;;;5.17;4.77;;;22.70;37.50;;;;;;4941551;28;20448;-55
2021/09/13 08:49:27;;;;;;;4.23;3.93;;;22.70;37.50;;;;;;4940690;28;20445;-52
2021/09/13 08:51:52;;;;;;;4.83;4.40;;;22.70;37.60;;;;;;4941184;28;20454;-55
2021/09/13 08:54:18;;;;;;;6.70;4.67;;;22.70;37.50;;;;;;4942690;28;20438;-52
2021/09/13 08:56:47;;;;;;;4.80;4.40;;;22.70;37.70;;;;;;4940828;28;20235;-57
2021/09/13 08:59:16;;;;;;;4.40;4.10;;;22.70;37.70;;;;;;4939615;28;20309;-54
2021/09/13 09:01:44;;;;;;;5.17;4.67;;;22.70;37.70;;;;;;4941535;28;20462;-57
2021/09/13 09:04:14;;;;;;;3.83;3.57;;;22.70;37.60;;;;;;4941090;28;20443;-54
2021/09/13 09:06:42;;;;;;;4.63;4.23;;;22.70;37.60;;;;;;4941853;28;20442;-53
2021/09/13 09:09:12;;;;;;;4.20;3.80;;;22.70;37.60;;;;;;4939075;28;20470;-53
2021/09/13 09:12:00;;;;;;;4.70;4.40;;;22.70;37.50;;;;;;4941296;28;20449;-52
2021/09/13 09:14:34;;;;;;;5.20;4.77;;;22.70;37.50;;;;;;4940816;28;20453;-50
2021/09/13 09:17:03;;;;;;;6.77;4.70;;;22.70;37.50;;;;;;4940520;28;21512;-52
2021/09/13 09:19:29;;;;;;;4.83;4.27;;;22.70;37.40;;;;;;4941140;28;20522;-54
2021/09/13 09:21:55;;;;;;;4.70;4.30;;;22.70;37.40;;;;;;4941144;28;20459;-53
2021/09/13 09:24:20;;;;;;;4.77;4.37;;;22.70;37.40;;;;;;4942149;28;20514;-55
2021/09/13 09:27:01;;;;;;;4.30;4.00;;;22.80;37.40;;;;;;4940162;28;20231;-54
2021/09/13 09:29:29;;;;;;;4.00;3.60;;;22.80;37.30;;;;;;4939457;28;20668;-57
2021/09/13 09:32:00;;;;;;;4.63;4.33;;;22.80;37.20;;;;;;4941299;28;20454;-54
2021/09/13 09:34:29;;;;;;;4.50;4.20;;;22.80;37.30;;;;;;4941074;28;20446;-54
2021/09/13 09:36:57;;;;;;;4.87;4.47;;;22.90;37.30;;;;;;4941965;28;20455;-54
2021/09/13 09:39:31;;;;;;;4.60;4.20;;;22.90;37.60;;;;;;4943054;28;20498;-55
2021/09/13 09:41:57;;;;;;;4.60;4.20;;;22.90;37.50;;;;;;4941254;28;20451;-55
2021/09/13 09:44:24;;;;;;;4.50;4.20;;;23.00;38.30;;;;;;4941158;28;20479;-59
2021/09/13 09:46:52;;;;;;;5.47;4.23;;;23.00;37.50;;;;;;4941399;28;20439;-55
2021/09/13 09:49:20;;;;;;;5.00;4.60;;;23.10;37.60;;;;;;4940059;28;20450;-50
2021/09/13 09:51:55;;;;;;;4.43;4.03;;;23.10;37.70;;;;;;4939514;28;20451;-53
2021/09/13 09:54:23;;;;;;;6.83;4.50;;;23.10;37.70;;;;;;4942948;28;20481;-53
2021/09/13 09:56:59;;;;;;;5.23;4.67;;;23.10;37.80;;;;;;4941203;28;20572;-56
2021/09/13 09:59:30;;;;;;;6.40;4.50;;;23.20;38.20;;;;;;4940411;28;20509;-53
2021/09/13 10:01:57;;;;;;;5.20;4.70;;;23.20;38.30;;;;;;4941113;28;20839;-53
2021/09/13 10:04:25;;;;;;;4.60;4.30;;;23.20;38.50;;;;;;4940630;28;20765;-52
2021/09/13 10:06:58;;;;;;;4.70;4.30;;;23.20;38.50;;;;;;4939681;28;20476;-52
2021/09/13 10:09:30;;;;;;;5.80;4.90;;;23.20;38.30;;;;;;4940416;28;20461;-56
2021/09/13 10:11:59;;;;;;;4.43;4.03;;;23.20;38.30;;;;;;4940353;28;21017;-57
2021/09/13 10:14:27;;;;;;;5.27;4.87;;;23.20;38.10;;;;;;4940586;28;21406;-53
2021/09/13 10:16:53;;;;;;;6.63;4.80;;;23.20;38.00;;;;;;4940812;28;20474;-55
2021/09/13 10:19:21;;;;;;;5.33;4.90;;;23.20;38.00;;;;;;4939726;28;20579;-55
2021/09/13 10:21:48;;;;;;;4.67;4.37;;;23.20;38.00;;;;;;4941105;28;20451;-58
2021/09/13 10:24:28;;;;;;;4.23;3.93;;;23.20;37.90;;;;;;4939021;28;20455;-57
2021/09/13 10:26:59;;;;;;;4.87;4.57;;;23.30;37.90;;;;;;4940373;28;20462;-52
2021/09/13 10:29:26;;;;;;;4.90;4.33;;;23.30;38.10;;;;;;4940119;28;20526;-51
2021/09/13 10:31:52;;;;;;;6.13;5.53;;;23.30;37.80;;;;;;4940996;28;20479;-56
2021/09/13 10:34:20;;;;;;;4.53;4.23;;;23.30;37.70;;;;;;4940057;28;20885;-54
2021/09/13 10:37:03;;;;;;;5.00;4.50;;;23.30;37.70;;;;;;4939068;28;20223;-54
2021/09/13 10:39:48;;;;;;;4.10;3.80;;;23.30;37.70;;;;;;4940541;28;20558;-58
2021/09/13 10:42:32;;;;;;;4.20;3.90;;;23.30;37.70;;;;;;4939681;28;20467;-54
2021/09/13 10:45:20;;;;;;;5.23;4.83;;;23.30;37.70;;;;;;4939101;28;20439;-56
2021/09/13 10:47:50;;;;;;;5.03;4.63;;;23.30;37.70;;;;;;4939892;28;20587;-52
2021/09/13 10:50:24;;;;;;;4.37;4.07;;;23.30;37.80;;;;;;4938349;28;20924;-54
2021/09/13 10:52:56;;;;;;;4.67;4.37;;;23.30;37.70;;;;;;4939916;28;20439;-55
2021/09/13 10:55:27;;;;;;;4.70;4.40;;;23.30;37.70;;;;;;4940751;28;20439;-57
2021/09/13 10:57:57;;;;;;;4.90;4.60;;;23.30;37.60;;;;;;4937982;28;20458;-58
2021/09/13 11:03:30;;;;;;;4.90;4.57;;;23.30;37.80;;;;;;4940421;28;20496;-55
2021/09/13 11:06:14;;;;;;;5.20;4.80;;;23.40;37.90;;;;;;4938303;28;20451;-56
2021/09/13 11:08:59;;;;;;;4.67;4.27;;;23.40;37.80;;;;;;4939830;28;20466;-54
2021/09/13 11:11:30;;;;;;;5.17;4.77;;;23.40;37.70;;;;;;4938654;28;21119;-55
2021/09/13 11:13:56;;;;;;;5.03;4.63;;;23.40;37.60;;;;;;4939679;28;20812;-63
2021/09/13 11:16:21;;;;;;;4.83;4.33;;;23.40;37.50;;;;;;4939381;28;20513;-59
2021/09/13 11:18:48;;;;;;;6.03;4.50;;;23.40;37.60;;;;;;4939404;28;20235;-58
2021/09/13 11:21:32;;;;;;;5.60;4.90;;;23.40;37.50;;;;;;4939591;28;20231;-61
2021/09/13 11:23:59;;;;;;;4.80;4.40;;;23.40;37.60;;;;;;4952904;28;20791;-61
2021/09/13 11:26:42;;;;;;;4.90;4.50;;;23.40;37.70;;;;;;4939218;28;20529;-61
2021/09/13 11:29:19;;;;;;;4.47;4.13;;;23.40;37.60;;;;;;4939179;28;20509;-61
2021/09/13 11:31:55;;;;;;;5.23;4.83;;;23.40;37.50;;;;;;4937990;28;20534;-61
2021/09/13 11:34:36;;;;;;;5.00;4.70;;;23.40;37.60;;;;;;4938892;28;20446;-62
2021/09/13 11:37:14;;;;;;;5.03;4.63;;;23.40;37.60;;;;;;4939972;28;20442;-59
2021/09/13 11:39:47;;;;;;;5.63;4.93;;;23.50;37.60;;;;;;4941442;28;20455;-63
2021/09/13 11:42:13;;;;;;;5.60;5.20;;;23.40;37.20;;;;;;4937546;28;20840;-64
2021/09/13 11:44:46;;;;;;;5.10;4.70;;;23.50;37.20;;;;;;4939093;28;20447;-55
2021/09/13 11:47:16;;;;;;;5.50;4.93;;;23.50;37.30;;;;;;4945595;28;20443;-54
2021/09/13 11:49:45;;;;;;;4.70;4.40;;;23.50;37.50;;;;;;4940914;28;20450;-58
2021/09/13 11:52:12;;;;;;;5.90;5.40;;;23.50;37.50;;;;;;4938799;28;20824;-60
2021/09/13 11:54:41;;;;;;;4.63;4.33;;;23.40;37.50;;;;;;4941515;28;20455;-56
2021/09/13 11:57:22;;;;;;;4.80;4.30;;;23.40;37.50;;;;;;4938681;28;20526;-61
2021/09/13 12:00:16;;;;;;;4.90;4.60;;;23.40;37.60;;;;;;4938189;28;21012;-63
2021/09/13 12:02:46;;;;;;;4.27;4.07;;;23.40;37.70;;;;;;4939092;28;20460;-61
2021/09/13 12:05:13;;;;;;;4.50;4.20;;;23.40;37.60;;;;;;4942969;28;20450;-63
2021/09/13 12:07:40;;;;;;;4.53;4.13;;;23.40;37.60;;;;;;4942957;28;20447;-63
2021/09/13 12:10:07;;;;;;;5.50;5.10;;;23.40;37.50;;;;;;4941439;28;21023;-61
2021/09/13 12:12:34;;;;;;;4.20;4.00;;;23.40;37.40;;;;;;4941973;28;21000;-64
2021/09/13 12:15:06;;;;;;;4.83;3.93;;;23.40;37.50;;;;;;4942501;28;20467;-62
2021/09/13 12:17:38;;;;;;;4.23;3.93;;;23.40;37.40;;;;;;4941813;28;20451;-64
2021/09/13 12:20:31;;;;;;;4.97;4.53;;;23.40;37.30;;;;;;4942274;28;20451;-66
2021/09/13 12:22:56;;;;;;;4.70;4.40;;;23.40;37.20;;;;;;4941820;28;20494;-65
2021/09/13 12:25:23;;;;;;;4.60;4.30;;;23.40;36.90;;;;;;4942719;28;20478;-61
2021/09/13 12:27:50;;;;;;;4.43;4.03;;;23.40;37.00;;;;;;4942778;28;20241;-54
2021/09/13 12:30:23;;;;;;;6.80;5.00;;;23.40;37.10;;;;;;4942379;28;21028;-57
2021/09/13 12:32:53;;;;;;;5.20;4.80;;;23.40;37.20;;;;;;4941103;28;20461;-62
2021/09/13 12:35:32;;;;;;;4.70;4.40;;;23.40;37.30;;;;;;4942096;28;20974;-60
2021/09/13 12:37:58;;;;;;;4.70;4.40;;;23.40;37.40;;;;;;4942528;28;20454;-63
2021/09/13 12:40:24;;;;;;;4.90;4.60;;;23.40;37.40;;;;;;4942588;28;20462;-54
2021/09/13 12:42:55;;;;;;;4.40;4.10;;;23.40;37.40;;;;;;4942202;28;20335;-61
2021/09/13 12:45:23;;;;;;;5.40;5.00;;;23.40;37.40;;;;;;4941085;28;20999;-62
2021/09/13 12:47:57;;;;;;;4.43;4.20;;;23.40;37.50;;;;;;4942375;28;20595;-61
2021/09/13 12:50:26;;;;;;;5.50;5.10;;;23.40;37.50;;;;;;4941568;28;20462;-58
2021/09/13 12:52:52;;;;;;;5.10;4.80;;;23.40;37.50;;;;;;4942332;28;20498;-56
2021/09/13 12:55:22;;;;;;;5.07;4.77;;;23.40;37.50;;;;;;4942920;28;20454;-60